Time;durP1;ratioP1;P1;durP2;ratioP2;P2;SDS_P1;SDS_P2;PMS_P1;PMS_P2;Temp;Humidity;BMP_temperature;BMP_pressure;BME280_temperature;BME280_humidity;BME280_pressure;Samples;Min_cycle;Max_cycle;Signal;HPM_P1;HPM_P2
2022/08/04 00:01:02;;;;;;;2.20;2.10;;;21.50;93.80;;;;;;5091689;28;20437;-90
2022/08/04 00:03:37;;;;;;;2.30;2.07;;;21.50;93.90;;;;;;5066043;28;20496;-91
2022/08/04 00:06:09;;;;;;;1.80;1.70;;;21.50;94.00;;;;;;5075952;28;21022;-91
2022/08/04 00:08:43;;;;;;;2.17;2.03;;;21.40;94.00;;;;;;5075670;28;20417;-90
2022/08/04 00:11:13;;;;;;;1.70;1.60;;;21.40;94.10;;;;;;5057379;28;20456;-90
2022/08/04 00:13:41;;;;;;;2.20;2.03;;;21.40;94.10;;;;;;5058036;28;20497;-91
2022/08/04 00:16:09;;;;;;;2.00;1.63;;;21.30;94.20;;;;;;5069488;28;20422;-91
2022/08/04 00:18:44;;;;;;;2.47;2.27;;;21.30;94.40;;;;;;5058480;28;20418;-90
2022/08/04 00:21:12;;;;;;;1.53;1.47;;;21.20;94.50;;;;;;5057600;28;20447;-91
2022/08/04 00:23:44;;;;;;;3.77;2.70;;;21.20;94.60;;;;;;5055225;28;20418;-91
2022/08/04 00:26:10;;;;;;;2.20;2.00;;;21.10;94.80;;;;;;5072250;28;20444;-91
2022/08/04 00:28:37;;;;;;;5.57;2.50;;;21.10;94.60;;;;;;5048755;28;20517;-90
2022/08/04 00:31:09;;;;;;;4.17;2.53;;;21.10;94.70;;;;;;5071343;28;20429;-91
2022/08/04 00:33:46;;;;;;;1.70;1.57;;;21.10;94.80;;;;;;5084037;28;20413;-91
2022/08/04 00:36:16;;;;;;;4.03;2.10;;;21.00;94.90;;;;;;5070868;28;20473;-91
2022/08/04 00:38:45;;;;;;;2.40;1.70;;;21.00;95.00;;;;;;5059716;28;20445;-91
2022/08/04 00:41:20;;;;;;;3.73;2.53;;;21.00;95.20;;;;;;5069350;28;20475;-91
2022/08/04 00:44:11;;;;;;;3.70;2.10;;;20.90;95.10;;;;;;5075445;28;20504;-91
2022/08/04 00:46:55;;;;;;;11.73;1.90;;;20.90;95.20;;;;;;5058242;28;20422;-92
2022/08/04 00:49:50;;;;;;;2.03;1.90;;;20.90;95.10;;;;;;5053828;28;20413;-91
2022/08/04 00:52:46;;;;;;;1.97;1.73;;;20.80;95.40;;;;;;5059583;28;20429;-91
2022/08/04 00:55:22;;;;;;;1.53;1.43;;;20.80;95.10;;;;;;5054736;28;20457;-91
2022/08/04 00:58:13;;;;;;;3.77;2.57;;;20.70;95.30;;;;;;5056977;28;20458;-92
2022/08/04 01:01:02;;;;;;;2.80;1.87;;;20.70;95.30;;;;;;5071160;28;20469;-91
2022/08/04 01:04:39;;;;;;;1.63;1.47;;;20.60;95.40;;;;;;5060022;28;20422;-91
2022/08/04 01:07:13;;;;;;;1.60;1.60;;;20.60;95.40;;;;;;5039276;28;20436;-92
2022/08/04 01:09:45;;;;;;;2.17;2.00;;;20.50;95.80;;;;;;5058100;28;20413;-92
2022/08/04 01:12:44;;;;;;;1.87;1.83;;;20.50;96.00;;;;;;5059723;28;20468;-92
2022/08/04 01:15:43;;;;;;;3.80;1.70;;;20.40;96.50;;;;;;5058003;28;20471;-92
2022/08/04 01:18:21;;;;;;;2.53;2.33;;;20.40;96.30;;;;;;5040938;28;20460;-90
2022/08/04 01:21:05;;;;;;;11.93;2.50;;;20.40;96.40;;;;;;5063657;28;20517;-89
2022/08/04 01:23:43;;;;;;;2.37;2.23;;;20.30;96.70;;;;;;5079886;28;20422;-89
2022/08/04 01:26:18;;;;;;;2.03;1.73;;;20.30;96.70;;;;;;5066737;28;20410;-89
2022/08/04 01:29:03;;;;;;;1.43;1.33;;;20.30;96.90;;;;;;5057945;28;20477;-90
2022/08/04 01:31:34;;;;;;;1.43;1.33;;;20.30;97.00;;;;;;5074728;28;20438;-89
2022/08/04 01:34:04;;;;;;;2.20;2.00;;;20.20;97.30;;;;;;5087069;28;20846;-89
2022/08/04 01:36:34;;;;;;;1.77;1.67;;;20.20;97.30;;;;;;5090980;28;20448;-89
2022/08/04 01:39:39;;;;;;;1.90;1.80;;;20.20;97.20;;;;;;5073724;28;20414;-90
2022/08/04 01:41:51;;;;;;;2.10;1.83;;;20.20;97.30;;;;;;5064967;28;20432;-89
2022/08/04 01:44:17;;;;;;;1.57;1.43;;;20.20;97.30;;;;;;5043861;28;20421;-89
2022/08/04 01:46:49;;;;;;;2.60;2.20;;;20.20;97.30;;;;;;5057677;28;20425;-89
2022/08/04 01:49:16;;;;;;;4.60;2.00;;;20.20;97.30;;;;;;5054522;28;20434;-89
2022/08/04 01:51:48;;;;;;;2.80;1.90;;;20.10;97.30;;;;;;5048202;28;20449;-90
2022/08/04 01:54:17;;;;;;;2.17;2.00;;;20.10;97.30;;;;;;5040986;28;20469;-90
2022/08/04 01:56:48;;;;;;;1.90;1.50;;;20.10;97.30;;;;;;5055429;28;20426;-90
2022/08/04 01:59:18;;;;;;;1.80;1.70;;;20.10;97.30;;;;;;5072727;28;20804;-89
2022/08/04 02:01:47;;;;;;;2.73;2.53;;;20.10;97.30;;;;;;5070060;28;20465;-89
2022/08/04 02:04:21;;;;;;;2.23;2.03;;;20.10;97.30;;;;;;5089578;28;20495;-89
2022/08/04 02:07:26;;;;;;;4.27;2.60;;;20.00;97.30;;;;;;5070289;28;20417;-89
2022/08/04 02:10:01;;;;;;;3.80;2.00;;;20.00;97.30;;;;;;5058222;28;20426;-89
2022/08/04 02:12:35;;;;;;;2.30;2.10;;;20.00;97.30;;;;;;5061091;28;20456;-89
2022/08/04 02:15:23;;;;;;;1.73;1.50;;;20.00;97.30;;;;;;5071548;28;20495;-89
2022/08/04 02:18:04;;;;;;;2.07;1.93;;;20.00;97.30;;;;;;5065536;28;20479;-89
2022/08/04 02:20:37;;;;;;;2.50;2.33;;;20.00;97.30;;;;;;5037954;28;20437;-89
2022/08/04 02:23:08;;;;;;;2.67;2.00;;;20.00;97.30;;;;;;5067572;28;20441;-89
2022/08/04 02:25:44;;;;;;;3.03;1.80;;;19.90;97.30;;;;;;5057424;28;20416;-89
2022/08/04 02:28:32;;;;;;;1.90;1.60;;;19.90;97.30;;;;;;5088986;28;20911;-89
2022/08/04 02:31:32;;;;;;;2.70;2.50;;;19.90;97.30;;;;;;5057151;28;20479;-89
2022/08/04 02:34:05;;;;;;;3.50;2.50;;;19.90;97.30;;;;;;5065553;28;20476;-89
2022/08/04 02:36:38;;;;;;;4.17;3.03;;;19.80;97.30;;;;;;5067386;28;20517;-89
2022/08/04 02:39:07;;;;;;;3.10;2.17;;;19.80;97.30;;;;;;5050204;28;20421;-90
2022/08/04 02:41:33;;;;;;;2.73;2.20;;;19.80;97.30;;;;;;5043997;28;20428;-89
2022/08/04 02:44:01;;;;;;;1.90;1.80;;;19.80;97.30;;;;;;5066911;28;20792;-89
2022/08/04 02:46:28;;;;;;;1.67;1.60;;;19.80;97.30;;;;;;5101086;28;20402;-88
2022/08/04 02:48:55;;;;;;;2.63;2.43;;;19.80;97.30;;;;;;5095764;28;20432;-88
2022/08/04 02:51:26;;;;;;;2.20;2.00;;;19.80;97.30;;;;;;5112330;28;20445;-89
2022/08/04 02:53:55;;;;;;;1.63;1.60;;;19.70;97.30;;;;;;5075372;28;20489;-90
2022/08/04 02:56:21;;;;;;;1.97;1.70;;;19.70;97.30;;;;;;5073968;28;20500;-89
2022/08/04 02:59:09;;;;;;;2.67;2.47;;;19.70;97.30;;;;;;5082640;28;20426;-89
2022/08/04 03:01:35;;;;;;;2.23;1.70;;;19.70;97.30;;;;;;5070605;28;20457;-89
2022/08/04 03:04:12;;;;;;;2.30;2.10;;;19.70;97.30;;;;;;5054485;28;20409;-89
2022/08/04 03:07:10;;;;;;;2.83;2.23;;;19.70;97.30;;;;;;5056720;28;20655;-89
2022/08/04 03:10:13;;;;;;;2.40;2.20;;;19.70;97.30;;;;;;5046544;28;20429;-89
2022/08/04 03:13:16;;;;;;;3.00;2.80;;;19.60;97.30;;;;;;5061730;28;20424;-89
2022/08/04 03:16:08;;;;;;;2.80;2.60;;;19.60;97.30;;;;;;5039924;28;20472;-89
2022/08/04 03:19:25;;;;;;;2.70;2.57;;;19.50;97.30;;;;;;5060327;28;20482;-89
2022/08/04 03:22:16;;;;;;;2.87;2.43;;;19.50;97.30;;;;;;4991006;28;20936;-89
2022/08/04 03:25:10;;;;;;;2.27;2.10;;;19.40;97.30;;;;;;5077526;28;20783;-89
2022/08/04 03:27:56;;;;;;;2.13;2.03;;;19.40;97.30;;;;;;5060332;28;20559;-89
2022/08/04 03:30:37;;;;;;;4.60;1.87;;;19.40;97.30;;;;;;5061878;28;20487;-89
2022/08/04 03:33:15;;;;;;;2.60;2.40;;;19.50;97.30;;;;;;5054210;28;20418;-90
2022/08/04 03:36:25;;;;;;;2.13;2.00;;;19.50;97.30;;;;;;5058610;28;20465;-89
2022/08/04 03:39:40;;;;;;;2.93;2.67;;;19.50;97.30;;;;;;5041051;28;20414;-89
2022/08/04 03:42:26;;;;;;;2.53;2.33;;;19.50;97.30;;;;;;5048272;28;20438;-89
2022/08/04 03:45:13;;;;;;;2.53;2.00;;;19.60;97.30;;;;;;5057932;28;20569;-89
2022/08/04 03:47:51;;;;;;;2.73;2.03;;;19.60;97.30;;;;;;5074543;28;20412;-89
2022/08/04 03:50:40;;;;;;;6.57;3.20;;;19.70;97.30;;;;;;5059762;28;20490;-89
2022/08/04 03:53:48;;;;;;;3.80;2.30;;;19.70;97.30;;;;;;5069532;28;20428;-89
2022/08/04 03:56:49;;;;;;;2.30;2.10;;;19.70;97.30;;;;;;5076280;28;20557;-89
2022/08/04 03:59:34;;;;;;;2.33;2.13;;;19.70;97.30;;;;;;5067309;28;20935;-90
2022/08/04 04:02:27;;;;;;;5.43;3.50;;;19.80;97.30;;;;;;5076979;28;20429;-90
2022/08/04 04:05:53;;;;;;;6.20;2.30;;;19.80;97.30;;;;;;5062224;28;20413;-90
2022/08/04 04:08:51;;;;;;;4.93;2.40;;;19.80;97.30;;;;;;5011745;28;20422;-90
2022/08/04 04:11:43;;;;;;;2.77;1.87;;;19.80;97.30;;;;;;5053943;28;20509;-89
2022/08/04 04:14:47;;;;;;;2.27;2.07;;;19.80;97.30;;;;;;5074026;28;20449;-90
2022/08/04 04:17:27;;;;;;;3.30;2.93;;;19.80;97.30;;;;;;5069897;28;20441;-90
2022/08/04 04:20:09;;;;;;;2.10;1.77;;;19.80;97.30;;;;;;5058054;28;20413;-91
2022/08/04 04:22:38;;;;;;;2.13;1.97;;;19.80;97.30;;;;;;5071518;28;20405;-90
2022/08/04 04:25:54;;;;;;;2.00;1.70;;;19.80;97.30;;;;;;5071804;28;20440;-90
2022/08/04 04:28:49;;;;;;;4.33;3.27;;;19.90;97.30;;;;;;4969851;28;21015;-90
2022/08/04 04:31:35;;;;;;;2.73;2.13;;;19.90;97.30;;;;;;4999401;28;20442;-91
2022/08/04 04:34:07;;;;;;;6.60;2.73;;;19.90;97.30;;;;;;5061768;28;20445;-91
2022/08/04 04:37:13;;;;;;;3.20;2.47;;;20.00;97.30;;;;;;5075436;28;20417;-91
2022/08/04 04:39:51;;;;;;;2.50;2.20;;;20.00;97.30;;;;;;5078962;28;20420;-90
2022/08/04 04:42:38;;;;;;;2.30;2.10;;;20.00;97.30;;;;;;5085425;28;20417;-90
2022/08/04 04:45:44;;;;;;;2.03;1.77;;;20.00;97.30;;;;;;5058352;28;20424;-90
2022/08/04 04:48:47;;;;;;;2.00;1.90;;;20.00;97.30;;;;;;5089962;28;20696;-91
2022/08/04 04:51:33;;;;;;;3.50;2.97;;;20.00;97.30;;;;;;5081100;28;20441;-91
2022/08/04 04:54:26;;;;;;;4.43;2.30;;;20.00;97.30;;;;;;5077382;28;20429;-91
2022/08/04 04:57:17;;;;;;;2.53;2.33;;;20.10;97.30;;;;;;5065441;28;20427;-91
2022/08/04 05:00:12;;;;;;;2.90;2.00;;;20.10;97.30;;;;;;5061742;28;20449;-91
2022/08/04 05:03:00;;;;;;;2.37;2.00;;;20.10;97.30;;;;;;5054375;28;20676;-90
2022/08/04 05:05:50;;;;;;;3.00;2.40;;;20.10;97.30;;;;;;5085697;28;20467;-91
2022/08/04 05:08:49;;;;;;;1.73;1.57;;;20.10;97.30;;;;;;5089620;28;20893;-91
2022/08/04 05:11:44;;;;;;;25.57;2.90;;;20.10;97.30;;;;;;5058033;28;20817;-90
2022/08/04 05:14:24;;;;;;;10.13;3.07;;;20.10;97.30;;;;;;5057615;28;20652;-90
2022/08/04 05:17:04;;;;;;;1.87;1.77;;;20.20;97.30;;;;;;5082665;28;20428;-91
2022/08/04 05:20:00;;;;;;;3.00;2.07;;;20.20;97.30;;;;;;5063241;28;20428;-90
2022/08/04 05:22:36;;;;;;;4.20;2.97;;;20.30;97.30;;;;;;5076145;28;20428;-91
2022/08/04 05:25:17;;;;;;;2.53;2.40;;;20.40;97.30;;;;;;5067513;28;20426;-90
2022/08/04 05:27:50;;;;;;;3.53;2.90;;;20.50;97.30;;;;;;5070151;28;20422;-90
2022/08/04 05:30:17;;;;;;;2.83;2.63;;;20.60;97.30;;;;;;5070336;28;20506;-91
2022/08/04 05:32:49;;;;;;;2.70;1.80;;;20.70;97.30;;;;;;5061575;28;20430;-90
2022/08/04 05:35:21;;;;;;;4.10;3.00;;;20.80;97.30;;;;;;5085016;28;20457;-90
2022/08/04 05:37:51;;;;;;;3.43;2.33;;;20.90;97.30;;;;;;5067100;28;20422;-90
2022/08/04 05:40:18;;;;;;;2.63;1.70;;;21.00;97.30;;;;;;5087800;28;20681;-90
2022/08/04 05:42:44;;;;;;;4.20;2.73;;;21.10;97.30;;;;;;5076172;28;20428;-90
2022/08/04 05:45:11;;;;;;;3.40;2.10;;;21.20;97.30;;;;;;5074081;28;20418;-91
2022/08/04 05:47:37;;;;;;;2.57;2.33;;;21.30;97.30;;;;;;5075538;28;20186;-90
2022/08/04 05:50:05;;;;;;;2.30;2.10;;;21.40;96.90;;;;;;5063184;28;20450;-91
2022/08/04 05:52:32;;;;;;;3.00;2.70;;;21.50;96.70;;;;;;5051818;28;20419;-91
2022/08/04 05:54:59;;;;;;;3.23;2.17;;;21.60;96.80;;;;;;5081598;28;20465;-91
2022/08/04 05:57:25;;;;;;;3.00;2.80;;;21.60;96.40;;;;;;5088198;28;20483;-91
2022/08/04 05:59:52;;;;;;;6.60;2.57;;;21.70;96.00;;;;;;5048762;28;20427;-90
2022/08/04 06:02:19;;;;;;;2.00;1.90;;;21.80;96.00;;;;;;5089099;28;20499;-91
2022/08/04 06:04:48;;;;;;;2.67;2.50;;;21.90;96.10;;;;;;5075029;28;20425;-90
2022/08/04 06:07:14;;;;;;;2.10;1.80;;;22.00;95.70;;;;;;5058892;28;20444;-91
2022/08/04 06:09:40;;;;;;;2.70;2.00;;;22.00;95.70;;;;;;5057602;28;20417;-90
2022/08/04 06:12:10;;;;;;;2.00;1.90;;;22.10;94.60;;;;;;5079970;28;20281;-90
2022/08/04 06:14:41;;;;;;;6.23;2.17;;;22.20;94.50;;;;;;5083512;28;20445;-90
2022/08/04 06:17:10;;;;;;;2.00;1.90;;;22.40;94.20;;;;;;5061973;28;20441;-90
2022/08/04 06:19:38;;;;;;;3.20;1.90;;;22.40;94.00;;;;;;5092083;28;20469;-90
2022/08/04 06:22:07;;;;;;;2.77;2.10;;;22.50;93.40;;;;;;5077382;28;20453;-90
2022/08/04 06:24:36;;;;;;;5.30;2.60;;;22.70;93.50;;;;;;5084840;28;20418;-89
2022/08/04 06:27:06;;;;;;;2.00;1.90;;;22.80;92.80;;;;;;5079224;28;20594;-90
2022/08/04 06:29:36;;;;;;;3.37;2.37;;;22.90;91.70;;;;;;5084175;28;20486;-91
2022/08/04 06:32:12;;;;;;;5.50;2.67;;;23.00;90.60;;;;;;5050027;28;20682;-90
2022/08/04 06:34:39;;;;;;;2.20;2.00;;;23.10;90.80;;;;;;5077441;28;20468;-93
2022/08/04 06:37:06;;;;;;;2.30;2.10;;;23.30;89.80;;;;;;5063285;28;20781;-91
2022/08/04 06:39:34;;;;;;;6.60;2.10;;;23.40;88.80;;;;;;5058543;28;20430;-91
2022/08/04 06:42:00;;;;;;;2.27;2.07;;;23.50;89.80;;;;;;5056587;28;20438;-90
2022/08/04 06:44:28;;;;;;;4.07;3.03;;;23.60;89.80;;;;;;5068579;28;20472;-90
2022/08/04 06:46:57;;;;;;;3.43;2.00;;;23.70;89.80;;;;;;5051777;28;20417;-91
2022/08/04 06:49:28;;;;;;;1.97;1.93;;;23.80;88.20;;;;;;5089796;28;20425;-90
2022/08/04 06:51:57;;;;;;;2.23;2.03;;;23.90;88.40;;;;;;5062229;28;20465;-91
2022/08/04 06:54:57;;;;;;;2.87;2.57;;;24.00;86.80;;;;;;5042880;28;20466;-91
2022/08/04 06:57:29;;;;;;;3.50;2.80;;;24.20;86.00;;;;;;5070026;28;20409;-90
2022/08/04 07:00:12;;;;;;;2.00;1.70;;;24.30;86.70;;;;;;5067329;28;20477;-92
2022/08/04 07:02:47;;;;;;;2.13;1.97;;;24.40;85.50;;;;;;5087656;28;20948;-91
2022/08/04 07:05:13;;;;;;;1.93;1.57;;;24.50;85.20;;;;;;5071242;28;20425;-91
2022/08/04 07:07:39;;;;;;;4.27;2.60;;;24.70;85.50;;;;;;5060918;28;20445;-90
2022/08/04 07:10:06;;;;;;;3.30;2.00;;;24.80;84.20;;;;;;5063904;28;20462;-91
2022/08/04 07:12:33;;;;;;;10.23;2.10;;;24.90;84.70;;;;;;5066021;28;20449;-89
2022/08/04 07:14:59;;;;;;;3.70;1.70;;;25.00;83.90;;;;;;5111543;28;20775;-90
2022/08/04 07:17:27;;;;;;;2.10;1.97;;;25.10;83.80;;;;;;5082427;22;20500;-79
2022/08/04 07:19:52;;;;;;;43.27;4.40;;;25.30;83.20;;;;;;5049548;28;20220;-79
2022/08/04 07:22:19;;;;;;;3.53;2.60;;;25.40;83.40;;;;;;5057530;28;20433;-79
2022/08/04 07:24:44;;;;;;;2.13;1.97;;;25.50;84.20;;;;;;5052257;28;20221;-79
2022/08/04 07:27:11;;;;;;;30.30;4.40;;;25.60;83.40;;;;;;5041768;28;20471;-78
2022/08/04 07:29:37;;;;;;;4.03;2.53;;;25.80;82.20;;;;;;5041725;28;20200;-79
2022/08/04 07:32:05;;;;;;;3.03;2.83;;;25.90;83.10;;;;;;5034896;28;20459;-81
2022/08/04 07:34:32;;;;;;;1.97;1.87;;;26.00;81.10;;;;;;5032521;28;20475;-79
2022/08/04 07:36:59;;;;;;;2.90;2.50;;;26.10;81.80;;;;;;5053321;28;20422;-79
2022/08/04 07:39:31;;;;;;;1.90;1.80;;;26.20;81.80;;;;;;5030996;28;20447;-80
2022/08/04 07:41:59;;;;;;;3.00;2.00;;;26.30;81.90;;;;;;5017173;28;20427;-79
2022/08/04 07:44:25;;;;;;;4.23;2.57;;;26.40;81.90;;;;;;5053589;28;20425;-80
2022/08/04 07:46:51;;;;;;;3.20;2.30;;;26.40;81.70;;;;;;5028671;28;20515;-80
2022/08/04 07:49:18;;;;;;;1.83;1.50;;;26.50;82.00;;;;;;5046065;28;20532;-80
2022/08/04 07:51:45;;;;;;;2.07;1.60;;;26.60;82.30;;;;;;5043881;28;20359;-80
2022/08/04 07:54:12;;;;;;;9.67;2.30;;;26.70;81.10;;;;;;5046568;28;20456;-80
2022/08/04 07:56:40;;;;;;;2.23;2.03;;;26.80;80.60;;;;;;5018768;28;20415;-80
2022/08/04 07:59:05;;;;;;;3.53;2.47;;;26.90;80.40;;;;;;5053118;28;20442;-80
2022/08/04 08:01:33;;;;;;;2.77;2.20;;;27.00;81.40;;;;;;5038090;28;20538;-80
2022/08/04 08:03:59;;;;;;;1.63;1.63;;;27.10;80.80;;;;;;5036524;28;20574;-81
2022/08/04 08:06:28;;;;;;;1.93;1.83;;;27.30;80.70;;;;;;5043020;28;20418;-80
2022/08/04 08:08:54;;;;;;;2.57;2.23;;;27.40;80.00;;;;;;5040178;28;20450;-81
2022/08/04 08:11:20;;;;;;;2.57;2.37;;;27.60;80.30;;;;;;5057519;28;20411;-80
2022/08/04 08:13:46;;;;;;;2.43;2.03;;;27.70;80.20;;;;;;5049697;28;20455;-79
2022/08/04 08:16:13;;;;;;;2.20;2.07;;;27.90;80.30;;;;;;5018502;28;20482;-80
2022/08/04 08:18:38;;;;;;;3.53;2.30;;;28.00;79.80;;;;;;5055483;28;20461;-80
2022/08/04 08:21:04;;;;;;;1.90;1.80;;;28.10;78.70;;;;;;5052672;28;20414;-80
2022/08/04 08:23:32;;;;;;;7.53;1.80;;;28.20;79.40;;;;;;5059156;28;20175;-81
2022/08/04 08:25:58;;;;;;;4.50;2.87;;;28.40;78.60;;;;;;5051099;28;20798;-80
2022/08/04 08:28:25;;;;;;;1.63;1.53;;;28.60;77.30;;;;;;5046443;28;20447;-80
2022/08/04 08:30:50;;;;;;;2.90;1.90;;;28.70;76.90;;;;;;5048470;28;20271;-81
2022/08/04 08:33:17;;;;;;;2.43;2.07;;;28.90;77.40;;;;;;5059371;28;20462;-80
2022/08/04 08:35:58;;;;;;;2.00;1.90;;;29.00;77.50;;;;;;5058681;28;20764;-80
2022/08/04 08:39:02;;;;;;;1.90;1.80;;;29.10;78.40;;;;;;5030591;28;20522;-80
2022/08/04 08:41:46;;;;;;;3.00;1.70;;;29.20;78.40;;;;;;5047839;28;20468;-79
2022/08/04 08:44:30;;;;;;;1.77;1.67;;;29.30;77.30;;;;;;5059295;28;20927;-81
2022/08/04 08:47:08;;;;;;;2.37;1.90;;;29.50;76.80;;;;;;5034213;28;20466;-79
2022/08/04 08:50:01;;;;;;;2.60;2.00;;;29.60;76.20;;;;;;5051641;28;20945;-81
2022/08/04 08:52:43;;;;;;;1.93;1.73;;;29.70;75.40;;;;;;5046568;28;20439;-81
2022/08/04 08:55:27;;;;;;;2.80;1.47;;;29.80;74.00;;;;;;5047404;28;20552;-81
2022/08/04 08:57:52;;;;;;;1.97;1.83;;;30.00;72.90;;;;;;5046422;28;20414;-81
2022/08/04 09:01:02;;;;;;;1.73;1.67;;;30.20;74.60;;;;;;5038738;28;20487;-80
2022/08/04 09:03:56;;;;;;;1.50;1.40;;;30.20;74.30;;;;;;4979118;28;20186;-80
2022/08/04 09:06:41;;;;;;;1.57;1.47;;;30.30;74.30;;;;;;5058743;28;20413;-81
2022/08/04 09:09:29;;;;;;;1.73;1.63;;;30.40;73.90;;;;;;5042679;28;20426;-81
2022/08/04 09:12:20;;;;;;;1.77;1.67;;;30.40;73.90;;;;;;5043664;28;20411;-80
2022/08/04 09:14:57;;;;;;;3.13;2.03;;;30.50;73.40;;;;;;5070887;22;20489;-83
2022/08/04 09:17:32;;;;;;;3.17;1.63;;;30.60;73.80;;;;;;5071645;28;20459;-82
2022/08/04 09:20:08;;;;;;;3.13;1.43;;;30.70;74.40;;;;;;5071205;28;20425;-82
2022/08/04 09:22:52;;;;;;;1.70;1.60;;;30.80;73.50;;;;;;5054695;28;20402;-81
2022/08/04 09:25:27;;;;;;;1.83;1.77;;;30.90;72.60;;;;;;5072477;28;20443;-83
2022/08/04 09:27:54;;;;;;;1.77;1.67;;;31.10;71.50;;;;;;5054699;28;20405;-82
2022/08/04 09:30:46;;;;;;;1.70;1.60;;;31.20;71.60;;;;;;5054550;28;20460;-82
2022/08/04 09:33:27;;;;;;;3.03;1.43;;;31.30;71.60;;;;;;5048931;28;20501;-82
2022/08/04 09:36:16;;;;;;;2.67;1.70;;;31.40;72.60;;;;;;5054476;28;20650;-82
2022/08/04 09:38:50;;;;;;;1.20;1.10;;;31.40;72.60;;;;;;5071145;28;20965;-82
2022/08/04 09:41:47;;;;;;;1.90;1.80;;;31.50;71.50;;;;;;5071118;28;20441;-81
2022/08/04 09:44:34;;;;;;;1.63;1.33;;;31.60;71.00;;;;;;5054688;28;20413;-82
2022/08/04 09:47:32;;;;;;;1.93;1.67;;;31.70;71.70;;;;;;5054880;28;20418;-81
2022/08/04 09:50:34;;;;;;;1.60;1.50;;;31.80;70.80;;;;;;5048954;28;20441;-82
2022/08/04 09:53:37;;;;;;;4.80;1.90;;;31.90;71.50;;;;;;5072455;28;20443;-83
2022/08/04 09:56:24;;;;;;;1.83;1.57;;;32.10;70.90;;;;;;5070753;28;20453;-82
2022/08/04 09:59:06;;;;;;;1.63;1.30;;;32.20;70.40;;;;;;5072374;28;20521;-82
2022/08/04 10:01:33;;;;;;;1.47;1.20;;;32.30;69.70;;;;;;5070418;28;20437;-82
2022/08/04 10:04:06;;;;;;;14.27;2.73;;;32.50;70.80;;;;;;5054222;28;20461;-82
2022/08/04 10:07:01;;;;;;;2.80;2.33;;;32.60;70.50;;;;;;5071796;28;20398;-82
2022/08/04 10:09:45;;;;;;;1.30;1.20;;;32.70;69.90;;;;;;5070520;28;20565;-83
2022/08/04 10:12:29;;;;;;;1.70;1.47;;;32.80;70.70;;;;;;5070363;28;20402;-83
2022/08/04 10:15:09;;;;;;;1.33;1.13;;;33.00;69.80;;;;;;5053687;28;20469;-84
2022/08/04 10:18:04;;;;;;;1.40;1.30;;;33.10;69.20;;;;;;5053764;28;20405;-82
2022/08/04 10:20:48;;;;;;;1.40;1.30;;;33.20;68.20;;;;;;5053472;28;20409;-82
2022/08/04 10:23:17;;;;;;;2.93;1.90;;;33.30;66.50;;;;;;5053716;28;20397;-82
2022/08/04 10:25:58;;;;;;;1.40;1.30;;;33.40;66.50;;;;;;5053422;28;20978;-82
2022/08/04 10:28:25;;;;;;;1.23;1.17;;;33.40;67.70;;;;;;5052993;28;20429;-83
2022/08/04 10:30:56;;;;;;;1.87;1.50;;;33.50;66.50;;;;;;5053378;28;20420;-83
2022/08/04 10:33:30;;;;;;;1.33;1.23;;;33.60;65.70;;;;;;5053350;28;20444;-83
2022/08/04 10:36:31;;;;;;;0.97;0.87;;;33.70;65.40;;;;;;5053658;28;20499;-83
2022/08/04 10:39:09;;;;;;;2.03;1.40;;;33.90;65.60;;;;;;5043431;28;20869;-83
2022/08/04 10:41:55;;;;;;;1.30;1.20;;;34.00;65.50;;;;;;5053398;28;20780;-82
2022/08/04 10:44:50;;;;;;;1.43;1.33;;;34.10;66.30;;;;;;5053407;28;20410;-83
2022/08/04 10:47:21;;;;;;;1.10;1.10;;;34.10;66.30;;;;;;5053339;28;20513;-82
2022/08/04 10:49:54;;;;;;;6.83;1.93;;;34.20;63.20;;;;;;5070178;28;20950;-83
2022/08/04 10:52:44;;;;;;;1.30;1.10;;;34.20;63.70;;;;;;5053188;28;20459;-83
2022/08/04 10:55:28;;;;;;;1.37;1.27;;;34.20;63.20;;;;;;5045515;28;20499;-83
2022/08/04 10:58:18;;;;;;;2.10;1.10;;;34.40;64.90;;;;;;5053147;28;20406;-83
2022/08/04 11:00:45;;;;;;;1.20;1.10;;;34.50;63.40;;;;;;5071127;28;20757;-83
2022/08/04 11:03:53;;;;;;;1.00;0.90;;;34.50;62.80;;;;;;5071026;28;20845;-83
2022/08/04 11:06:19;;;;;;;1.63;1.20;;;34.50;63.10;;;;;;5052409;28;20537;-83
2022/08/04 11:08:50;;;;;;;4.10;1.77;;;34.60;62.70;;;;;;5070918;28;20436;-83
2022/08/04 11:11:38;;;;;;;1.20;1.10;;;34.70;63.90;;;;;;5053102;28;20902;-83
2022/08/04 11:14:18;;;;;;;1.40;1.30;;;34.70;64.00;;;;;;5052636;28;20464;-82
2022/08/04 11:16:59;;;;;;;1.50;1.40;;;34.60;63.70;;;;;;5053027;28;20491;-83
2022/08/04 11:19:45;;;;;;;1.00;0.90;;;34.70;63.40;;;;;;5052904;28;20483;-84
2022/08/04 11:22:21;;;;;;;1.40;1.30;;;34.80;62.70;;;;;;5052708;28;20452;-82
2022/08/04 11:24:51;;;;;;;1.00;0.90;;;34.90;62.60;;;;;;5052913;28;20836;-83
2022/08/04 11:27:28;;;;;;;1.20;1.10;;;34.90;63.70;;;;;;5053009;28;20421;-83
2022/08/04 11:30:02;;;;;;;1.40;1.37;;;34.90;62.60;;;;;;5069587;28;20432;-83
2022/08/04 11:32:41;;;;;;;1.00;0.90;;;34.90;63.30;;;;;;5053089;28;20409;-83
2022/08/04 11:35:14;;;;;;;1.30;1.30;;;34.90;64.30;;;;;;5053085;28;20492;-82
2022/08/04 11:38:01;;;;;;;1.70;1.20;;;35.00;63.60;;;;;;5052773;28;20471;-84
2022/08/04 11:40:42;;;;;;;2.13;1.73;;;35.00;64.00;;;;;;5074303;28;20668;-84
2022/08/04 11:43:25;;;;;;;2.13;1.47;;;35.10;62.60;;;;;;5073230;28;20406;-84
2022/08/04 11:45:56;;;;;;;5.10;2.03;;;35.20;63.40;;;;;;5056380;28;20496;-83
2022/08/04 11:48:43;;;;;;;1.60;1.50;;;35.30;63.50;;;;;;5073184;28;20441;-84
2022/08/04 11:51:10;;;;;;;1.80;1.40;;;35.40;64.10;;;;;;5056338;28;20397;-84
2022/08/04 11:53:38;;;;;;;1.20;1.10;;;35.40;64.20;;;;;;5056312;28;20500;-83
2022/08/04 11:56:08;;;;;;;1.57;1.50;;;35.50;62.10;;;;;;5056398;28;20459;-83
2022/08/04 11:58:34;;;;;;;2.23;2.03;;;35.60;62.50;;;;;;5056437;28;21121;-84
2022/08/04 12:01:43;;;;;;;1.13;1.10;;;35.70;62.20;;;;;;5056185;28;20405;-84
2022/08/04 12:04:43;;;;;;;1.60;1.50;;;35.80;60.00;;;;;;5045620;28;20164;-84
2022/08/04 12:07:34;;;;;;;1.30;1.20;;;35.90;62.10;;;;;;5060949;28;20992;-84
2022/08/04 12:10:21;;;;;;;1.53;1.43;;;36.00;62.80;;;;;;5055294;28;20840;-84
2022/08/04 12:13:00;;;;;;;4.00;1.17;;;36.10;63.70;;;;;;5043465;28;20690;-85
2022/08/04 12:15:29;;;;;;;3.27;1.60;;;36.30;61.60;;;;;;5054280;28;21009;-85
2022/08/04 12:18:19;;;;;;;1.17;1.07;;;36.40;60.60;;;;;;5042139;28;20733;-85
2022/08/04 12:20:57;;;;;;;1.23;1.13;;;36.50;60.90;;;;;;5058828;28;20476;-85
2022/08/04 12:23:34;;;;;;;1.27;1.17;;;36.60;61.50;;;;;;5072076;28;20413;-85
2022/08/04 12:26:06;;;;;;;1.10;1.00;;;36.80;59.40;;;;;;5072476;28;20987;-85
2022/08/04 12:28:35;;;;;;;1.10;1.00;;;36.90;60.60;;;;;;5065920;28;20433;-85
2022/08/04 12:31:25;;;;;;;1.87;1.20;;;37.00;60.80;;;;;;5058645;28;20466;-85
2022/08/04 12:34:00;;;;;;;1.43;1.33;;;37.10;59.90;;;;;;5058045;28;20503;-85
2022/08/04 12:36:44;;;;;;;1.13;1.07;;;37.30;60.70;;;;;;5068342;28;20468;-85
2022/08/04 12:39:15;;;;;;;1.10;1.00;;;37.40;60.20;;;;;;5068908;28;20465;-85
2022/08/04 12:42:18;;;;;;;1.00;1.00;;;37.50;58.90;;;;;;5053331;28;20876;-85
2022/08/04 12:44:48;;;;;;;1.50;1.40;;;37.60;58.00;;;;;;5044102;28;20935;-85
2022/08/04 12:47:15;;;;;;;1.10;1.00;;;37.70;58.00;;;;;;5071342;28;20452;-85
2022/08/04 12:49:43;;;;;;;1.27;1.00;;;37.70;56.90;;;;;;5065205;28;20445;-85
2022/08/04 12:52:13;;;;;;;1.90;1.33;;;37.80;57.50;;;;;;5048168;28;20422;-85
2022/08/04 12:54:42;;;;;;;1.23;1.13;;;37.80;58.00;;;;;;5071292;28;21119;-85
2022/08/04 12:57:09;;;;;;;1.03;1.00;;;37.80;56.80;;;;;;5071201;28;20414;-85
2022/08/04 12:59:39;;;;;;;1.40;1.30;;;37.90;57.80;;;;;;5058022;28;20437;-85
2022/08/04 13:02:12;;;;;;;1.93;1.60;;;37.90;58.90;;;;;;5071463;28;20410;-86
2022/08/04 13:04:42;;;;;;;1.20;1.10;;;37.90;58.20;;;;;;5071251;28;20457;-85
2022/08/04 13:07:19;;;;;;;3.83;1.53;;;38.10;59.70;;;;;;5057401;28;20444;-85
2022/08/04 13:09:45;;;;;;;1.80;1.73;;;38.20;58.60;;;;;;5051807;28;20443;-85
2022/08/04 13:12:14;;;;;;;1.33;1.30;;;38.20;57.60;;;;;;5049434;28;20437;-85
2022/08/04 13:14:44;;;;;;;1.30;1.20;;;38.20;58.60;;;;;;5054035;28;20530;-84
2022/08/04 13:17:13;;;;;;;1.10;1.00;;;38.20;59.20;;;;;;5071041;28;20948;-85
2022/08/04 13:19:44;;;;;;;1.67;1.37;;;38.20;57.70;;;;;;5060347;28;20542;-85
2022/08/04 13:22:09;;;;;;;1.40;1.30;;;38.20;58.70;;;;;;5051987;28;20449;-85
2022/08/04 13:24:37;;;;;;;1.40;1.30;;;38.20;57.90;;;;;;5071333;28;20464;-84
2022/08/04 13:27:12;;;;;;;1.27;1.20;;;38.30;58.60;;;;;;5063488;28;20188;-86
2022/08/04 13:29:44;;;;;;;1.80;1.67;;;38.40;57.70;;;;;;5070843;28;20445;-85
2022/08/04 13:32:19;;;;;;;1.47;1.40;;;38.40;57.70;;;;;;5052900;28;20406;-85
2022/08/04 13:34:46;;;;;;;1.20;1.10;;;38.30;59.00;;;;;;5046886;28;20467;-85
2022/08/04 13:37:14;;;;;;;1.57;1.23;;;38.10;59.40;;;;;;5064600;28;20421;-83
2022/08/04 13:39:44;;;;;;;1.30;1.20;;;37.90;60.50;;;;;;5064806;28;20430;-85
2022/08/04 13:42:11;;;;;;;1.00;0.90;;;38.00;61.50;;;;;;5041339;28;20417;-83